sensor_id;sensor_type;location;lat;lon;timestamp;temperature;humidity
75893;DHT22;64572;50.950;3.676;2022-12-18T00:01:15;-4.10;84.90
75893;DHT22;64572;50.950;3.676;2022-12-18T00:03:40;-4.00;86.60
75893;DHT22;64572;50.950;3.676;2022-12-18T00:06:06;-4.00;85.70
75893;DHT22;64572;50.950;3.676;2022-12-18T00:08:32;-4.00;85.90
75893;DHT22;64572;50.950;3.676;2022-12-18T00:11:08;-4.00;86.60
75893;DHT22;64572;50.950;3.676;2022-12-18T00:13:34;-4.20;86.90
75893;DHT22;64572;50.950;3.676;2022-12-18T00:16:05;-4.20;86.80
75893;DHT22;64572;50.950;3.676;2022-12-18T00:18:31;-4.40;86.90
75893;DHT22;64572;50.950;3.676;2022-12-18T00:21:02;-4.40;87.80
75893;DHT22;64572;50.950;3.676;2022-12-18T00:23:28;-4.40;88.50
75893;DHT22;64572;50.950;3.676;2022-12-18T00:25:54;-4.50;87.30
75893;DHT22;64572;50.950;3.676;2022-12-18T00:28:20;-4.50;85.00
75893;DHT22;64572;50.950;3.676;2022-12-18T00:30:46;-4.70;84.90
75893;DHT22;64572;50.950;3.676;2022-12-18T00:33:11;-4.80;86.10
75893;DHT22;64572;50.950;3.676;2022-12-18T00:35:37;-4.80;86.70
75893;DHT22;64572;50.950;3.676;2022-12-18T00:38:03;-4.70;87.10
75893;DHT22;64572;50.950;3.676;2022-12-18T00:40:28;-4.60;87.80
75893;DHT22;64572;50.950;3.676;2022-12-18T00:42:54;-4.60;86.90
75893;DHT22;64572;50.950;3.676;2022-12-18T00:45:28;-4.60;85.80
75893;DHT22;64572;50.950;3.676;2022-12-18T00:47:54;-4.70;86.10
75893;DHT22;64572;50.950;3.676;2022-12-18T00:50:20;-4.80;86.80
75893;DHT22;64572;50.950;3.676;2022-12-18T00:52:46;-4.50;86.70
75893;DHT22;64572;50.950;3.676;2022-12-18T00:55:12;-4.80;86.40
75893;DHT22;64572;50.950;3.676;2022-12-18T00:57:38;-4.90;86.50
75893;DHT22;64572;50.950;3.676;2022-12-18T01:00:06;-4.90;86.30
75893;DHT22;64572;50.950;3.676;2022-12-18T01:02:32;-4.90;84.50
75893;DHT22;64572;50.950;3.676;2022-12-18T01:04:57;-4.80;84.30
75893;DHT22;64572;50.950;3.676;2022-12-18T01:07:23;-4.90;83.90
75893;DHT22;64572;50.950;3.676;2022-12-18T01:09:49;-4.70;84.00
75893;DHT22;64572;50.950;3.676;2022-12-18T01:12:14;-4.90;82.70
75893;DHT22;64572;50.950;3.676;2022-12-18T01:14:40;-5.10;83.40
75893;DHT22;64572;50.950;3.676;2022-12-18T01:17:06;-5.30;84.40
75893;DHT22;64572;50.950;3.676;2022-12-18T01:19:37;-5.50;85.40
75893;DHT22;64572;50.950;3.676;2022-12-18T01:22:03;-5.50;85.80
75893;DHT22;64572;50.950;3.676;2022-12-18T01:24:31;-5.50;85.40
75893;DHT22;64572;50.950;3.676;2022-12-18T01:26:57;-5.40;85.90
75893;DHT22;64572;50.950;3.676;2022-12-18T01:29:23;-5.30;85.40
75893;DHT22;64572;50.950;3.676;2022-12-18T01:31:49;-5.20;84.90
75893;DHT22;64572;50.950;3.676;2022-12-18T01:34:14;-5.20;84.80
75893;DHT22;64572;50.950;3.676;2022-12-18T01:36:40;-5.10;84.60
75893;DHT22;64572;50.950;3.676;2022-12-18T01:39:10;-5.10;84.00
75893;DHT22;64572;50.950;3.676;2022-12-18T01:41:36;-5.20;83.40
75893;DHT22;64572;50.950;3.676;2022-12-18T01:47:43;-5.10;81.50
75893;DHT22;64572;50.950;3.676;2022-12-18T01:50:22;-5.20;82.10
75893;DHT22;64572;50.950;3.676;2022-12-18T01:52:55;-5.30;81.30
75893;DHT22;64572;50.950;3.676;2022-12-18T01:55:24;-5.40;82.30
75893;DHT22;64572;50.950;3.676;2022-12-18T01:57:56;-5.40;84.00
75893;DHT22;64572;50.950;3.676;2022-12-18T02:00:24;-5.40;82.90
75893;DHT22;64572;50.950;3.676;2022-12-18T02:02:50;-5.40;83.00
75893;DHT22;64572;50.950;3.676;2022-12-18T02:05:19;-5.30;82.90
75893;DHT22;64572;50.950;3.676;2022-12-18T02:08:26;-5.30;82.70
75893;DHT22;64572;50.950;3.676;2022-12-18T02:18:59;-5.20;86.40
75893;DHT22;64572;50.950;3.676;2022-12-18T02:26:53;-6.50;88.10
75893;DHT22;64572;50.950;3.676;2022-12-18T02:29:27;-6.50;88.60
75893;DHT22;64572;50.950;3.676;2022-12-18T02:31:57;-6.40;87.90
75893;DHT22;64572;50.950;3.676;2022-12-18T02:34:26;-6.20;86.20
75893;DHT22;64572;50.950;3.676;2022-12-18T02:36:54;-6.10;85.40
75893;DHT22;64572;50.950;3.676;2022-12-18T02:39:21;-6.00;84.50
75893;DHT22;64572;50.950;3.676;2022-12-18T02:41:48;-5.80;85.70
75893;DHT22;64572;50.950;3.676;2022-12-18T02:44:14;-5.80;84.00
75893;DHT22;64572;50.950;3.676;2022-12-18T02:46:43;-5.60;84.00
75893;DHT22;64572;50.950;3.676;2022-12-18T02:54:23;-6.00;84.00
75893;DHT22;64572;50.950;3.676;2022-12-18T02:56:53;-6.00;84.40
75893;DHT22;64572;50.950;3.676;2022-12-18T02:59:26;-6.00;84.10
75893;DHT22;64572;50.950;3.676;2022-12-18T03:02:10;-5.90;84.10
75893;DHT22;64572;50.950;3.676;2022-12-18T03:04:47;-5.90;83.40
75893;DHT22;64572;50.950;3.676;2022-12-18T03:07:21;-5.80;83.20
75893;DHT22;64572;50.950;3.676;2022-12-18T03:09:55;-5.70;82.10
75893;DHT22;64572;50.950;3.676;2022-12-18T03:15:24;-5.80;81.40
75893;DHT22;64572;50.950;3.676;2022-12-18T03:18:01;-5.80;80.70
75893;DHT22;64572;50.950;3.676;2022-12-18T03:20:29;-6.10;81.60
75893;DHT22;64572;50.950;3.676;2022-12-18T03:23:00;-6.30;82.90
75893;DHT22;64572;50.950;3.676;2022-12-18T03:25:28;-6.40;83.10
75893;DHT22;64572;50.950;3.676;2022-12-18T03:27:56;-6.50;83.50
75893;DHT22;64572;50.950;3.676;2022-12-18T03:30:25;-6.40;83.80
75893;DHT22;64572;50.950;3.676;2022-12-18T03:33:08;-6.40;83.80
75893;DHT22;64572;50.950;3.676;2022-12-18T03:35:38;-6.40;83.80
75893;DHT22;64572;50.950;3.676;2022-12-18T03:38:05;-6.30;84.00
75893;DHT22;64572;50.950;3.676;2022-12-18T03:43:15;-6.20;82.10
75893;DHT22;64572;50.950;3.676;2022-12-18T03:45:49;-6.10;83.80
75893;DHT22;64572;50.950;3.676;2022-12-18T03:48:38;-6.20;82.10
75893;DHT22;64572;50.950;3.676;2022-12-18T03:51:17;-6.40;83.30
75893;DHT22;64572;50.950;3.676;2022-12-18T03:56:16;-6.40;83.20
75893;DHT22;64572;50.950;3.676;2022-12-18T03:58:42;-6.40;81.50
75893;DHT22;64572;50.950;3.676;2022-12-18T04:01:14;-6.60;83.90
75893;DHT22;64572;50.950;3.676;2022-12-18T04:03:47;-6.70;84.10
75893;DHT22;64572;50.950;3.676;2022-12-18T04:06:15;-6.60;83.40
75893;DHT22;64572;50.950;3.676;2022-12-18T04:08:42;-6.70;84.20
75893;DHT22;64572;50.950;3.676;2022-12-18T04:11:08;-6.80;85.70
75893;DHT22;64572;50.950;3.676;2022-12-18T04:13:37;-6.80;87.30
75893;DHT22;64572;50.950;3.676;2022-12-18T04:16:03;-7.00;90.00
75893;DHT22;64572;50.950;3.676;2022-12-18T04:18:29;-6.80;89.80
75893;DHT22;64572;50.950;3.676;2022-12-18T04:20:55;-6.90;90.40
75893;DHT22;64572;50.950;3.676;2022-12-18T04:23:20;-7.10;90.90
75893;DHT22;64572;50.950;3.676;2022-12-18T04:25:47;-7.20;91.70
75893;DHT22;64572;50.950;3.676;2022-12-18T04:28:12;-7.10;92.30
75893;DHT22;64572;50.950;3.676;2022-12-18T04:30:38;-6.90;92.60
75893;DHT22;64572;50.950;3.676;2022-12-18T04:33:07;-6.80;92.50
75893;DHT22;64572;50.950;3.676;2022-12-18T04:35:33;-6.70;91.90
75893;DHT22;64572;50.950;3.676;2022-12-18T04:37:58;-6.60;91.20
75893;DHT22;64572;50.950;3.676;2022-12-18T04:40:24;-6.60;90.80
75893;DHT22;64572;50.950;3.676;2022-12-18T04:42:50;-6.50;90.20
75893;DHT22;64572;50.950;3.676;2022-12-18T04:45:15;-6.40;88.90
75893;DHT22;64572;50.950;3.676;2022-12-18T04:47:41;-6.40;88.30
75893;DHT22;64572;50.950;3.676;2022-12-18T04:50:07;-6.40;88.60
75893;DHT22;64572;50.950;3.676;2022-12-18T04:52:42;-6.30;87.80
75893;DHT22;64572;50.950;3.676;2022-12-18T04:55:07;-6.10;86.90
75893;DHT22;64572;50.950;3.676;2022-12-18T04:57:34;-6.20;86.30
75893;DHT22;64572;50.950;3.676;2022-12-18T05:00:02;-6.30;87.30
75893;DHT22;64572;50.950;3.676;2022-12-18T05:02:28;-6.40;88.40
75893;DHT22;64572;50.950;3.676;2022-12-18T05:04:53;-6.30;89.20
75893;DHT22;64572;50.950;3.676;2022-12-18T05:07:19;-6.40;89.90
75893;DHT22;64572;50.950;3.676;2022-12-18T05:09:45;-6.40;89.60
75893;DHT22;64572;50.950;3.676;2022-12-18T05:12:10;-6.30;87.80
75893;DHT22;64572;50.950;3.676;2022-12-18T05:14:36;-6.00;87.50
75893;DHT22;64572;50.950;3.676;2022-12-18T05:17:02;-6.20;86.70
75893;DHT22;64572;50.950;3.676;2022-12-18T05:19:27;-6.50;87.80
75893;DHT22;64572;50.950;3.676;2022-12-18T05:21:53;-6.40;88.10
75893;DHT22;64572;50.950;3.676;2022-12-18T05:24:18;-6.30;87.40
75893;DHT22;64572;50.950;3.676;2022-12-18T05:26:44;-6.20;86.10
75893;DHT22;64572;50.950;3.676;2022-12-18T05:29:10;-6.10;86.60
75893;DHT22;64572;50.950;3.676;2022-12-18T05:31:38;-6.20;86.40
75893;DHT22;64572;50.950;3.676;2022-12-18T05:34:04;-6.10;85.40
75893;DHT22;64572;50.950;3.676;2022-12-18T05:36:30;-6.00;85.60
75893;DHT22;64572;50.950;3.676;2022-12-18T05:38:56;-6.00;84.40
75893;DHT22;64572;50.950;3.676;2022-12-18T05:41:24;-5.90;83.90
75893;DHT22;64572;50.950;3.676;2022-12-18T05:43:50;-5.90;83.80
75893;DHT22;64572;50.950;3.676;2022-12-18T05:46:17;-6.00;85.60
75893;DHT22;64572;50.950;3.676;2022-12-18T05:48:46;-6.10;86.10
75893;DHT22;64572;50.950;3.676;2022-12-18T05:51:14;-6.00;83.70
75893;DHT22;64572;50.950;3.676;2022-12-18T05:53:40;-6.00;83.20
75893;DHT22;64572;50.950;3.676;2022-12-18T05:56:09;-6.00;84.20
75893;DHT22;64572;50.950;3.676;2022-12-18T05:58:35;-6.10;84.70
75893;DHT22;64572;50.950;3.676;2022-12-18T06:01:27;-6.20;84.50
75893;DHT22;64572;50.950;3.676;2022-12-18T06:03:53;-6.60;87.10
75893;DHT22;64572;50.950;3.676;2022-12-18T06:06:21;-6.60;86.90
75893;DHT22;64572;50.950;3.676;2022-12-18T06:08:48;-6.60;88.30
75893;DHT22;64572;50.950;3.676;2022-12-18T06:11:17;-6.60;87.90
75893;DHT22;64572;50.950;3.676;2022-12-18T06:13:43;-6.60;87.00
75893;DHT22;64572;50.950;3.676;2022-12-18T06:16:09;-6.70;87.50
75893;DHT22;64572;50.950;3.676;2022-12-18T06:18:35;-6.70;87.10
75893;DHT22;64572;50.950;3.676;2022-12-18T06:21:03;-6.90;88.70
75893;DHT22;64572;50.950;3.676;2022-12-18T06:23:29;-7.00;89.20
75893;DHT22;64572;50.950;3.676;2022-12-18T06:25:55;-7.00;90.10
75893;DHT22;64572;50.950;3.676;2022-12-18T06:28:23;-6.90;89.50
75893;DHT22;64572;50.950;3.676;2022-12-18T06:30:49;-6.90;90.00
75893;DHT22;64572;50.950;3.676;2022-12-18T06:33:18;-6.90;90.00
75893;DHT22;64572;50.950;3.676;2022-12-18T06:35:44;-6.80;88.80
75893;DHT22;64572;50.950;3.676;2022-12-18T06:38:10;-6.70;87.50
75893;DHT22;64572;50.950;3.676;2022-12-18T06:40:38;-6.60;86.90
75893;DHT22;64572;50.950;3.676;2022-12-18T06:43:05;-6.40;87.00
75893;DHT22;64572;50.950;3.676;2022-12-18T06:45:31;-6.60;87.50
75893;DHT22;64572;50.950;3.676;2022-12-18T06:48:02;-6.70;87.90
75893;DHT22;64572;50.950;3.676;2022-12-18T06:50:28;-6.70;89.00
75893;DHT22;64572;50.950;3.676;2022-12-18T06:52:54;-6.70;88.60
75893;DHT22;64572;50.950;3.676;2022-12-18T06:55:19;-6.80;89.30
75893;DHT22;64572;50.950;3.676;2022-12-18T06:57:45;-6.70;90.00
75893;DHT22;64572;50.950;3.676;2022-12-18T07:00:11;-6.90;90.30
75893;DHT22;64572;50.950;3.676;2022-12-18T07:02:36;-6.90;90.30
75893;DHT22;64572;50.950;3.676;2022-12-18T07:05:03;-6.80;90.20
75893;DHT22;64572;50.950;3.676;2022-12-18T07:07:28;-6.60;89.20
75893;DHT22;64572;50.950;3.676;2022-12-18T07:09:54;-6.50;88.90
75893;DHT22;64572;50.950;3.676;2022-12-18T07:12:20;-6.40;87.80
75893;DHT22;64572;50.950;3.676;2022-12-18T07:14:45;-6.40;86.70
75893;DHT22;64572;50.950;3.676;2022-12-18T07:17:11;-6.50;86.70
75893;DHT22;64572;50.950;3.676;2022-12-18T07:19:37;-6.70;87.80
75893;DHT22;64572;50.950;3.676;2022-12-18T07:22:03;-6.80;88.60
75893;DHT22;64572;50.950;3.676;2022-12-18T07:24:28;-6.60;88.30
75893;DHT22;64572;50.950;3.676;2022-12-18T07:26:54;-6.60;88.10
75893;DHT22;64572;50.950;3.676;2022-12-18T07:29:20;-6.70;87.90
75893;DHT22;64572;50.950;3.676;2022-12-18T07:31:45;-6.60;88.20
75893;DHT22;64572;50.950;3.676;2022-12-18T07:34:12;-6.70;88.80
75893;DHT22;64572;50.950;3.676;2022-12-18T07:36:38;-6.70;89.90
75893;DHT22;64572;50.950;3.676;2022-12-18T07:39:03;-6.60;90.00
75893;DHT22;64572;50.950;3.676;2022-12-18T07:41:29;-6.70;89.00
75893;DHT22;64572;50.950;3.676;2022-12-18T07:43:54;-6.50;87.60
75893;DHT22;64572;50.950;3.676;2022-12-18T07:46:20;-6.60;88.00
75893;DHT22;64572;50.950;3.676;2022-12-18T07:48:46;-6.70;88.40
75893;DHT22;64572;50.950;3.676;2022-12-18T07:51:12;-6.50;88.70
75893;DHT22;64572;50.950;3.676;2022-12-18T07:53:38;-6.60;88.00
75893;DHT22;64572;50.950;3.676;2022-12-18T07:56:07;-6.40;87.00
75893;DHT22;64572;50.950;3.676;2022-12-18T07:58:33;-6.40;89.10
75893;DHT22;64572;50.950;3.676;2022-12-18T08:01:07;-6.60;89.50
75893;DHT22;64572;50.950;3.676;2022-12-18T08:03:33;-6.50;88.50
75893;DHT22;64572;50.950;3.676;2022-12-18T08:06:04;-6.40;86.50
75893;DHT22;64572;50.950;3.676;2022-12-18T08:08:30;-6.30;87.10
75893;DHT22;64572;50.950;3.676;2022-12-18T08:10:57;-6.40;87.60
75893;DHT22;64572;50.950;3.676;2022-12-18T08:13:23;-6.50;89.70
75893;DHT22;64572;50.950;3.676;2022-12-18T08:16:00;-6.50;91.40
75893;DHT22;64572;50.950;3.676;2022-12-18T08:18:26;-6.50;91.00
75893;DHT22;64572;50.950;3.676;2022-12-18T08:20:52;-6.40;90.60
75893;DHT22;64572;50.950;3.676;2022-12-18T08:23:17;-6.00;90.60
75893;DHT22;64572;50.950;3.676;2022-12-18T08:25:43;-6.10;90.70
75893;DHT22;64572;50.950;3.676;2022-12-18T08:28:09;-5.80;90.70
75893;DHT22;64572;50.950;3.676;2022-12-18T08:30:35;-5.50;90.40
75893;DHT22;64572;50.950;3.676;2022-12-18T08:33:01;-5.20;89.70
75893;DHT22;64572;50.950;3.676;2022-12-18T08:35:26;-5.00;89.60
75893;DHT22;64572;50.950;3.676;2022-12-18T08:37:52;-4.90;90.10
75893;DHT22;64572;50.950;3.676;2022-12-18T08:40:18;-4.70;90.60
75893;DHT22;64572;50.950;3.676;2022-12-18T08:42:43;-4.50;91.70
75893;DHT22;64572;50.950;3.676;2022-12-18T08:45:28;-4.20;91.20
75893;DHT22;64572;50.950;3.676;2022-12-18T08:47:54;-4.00;90.70
75893;DHT22;64572;50.950;3.676;2022-12-18T08:50:20;-3.90;90.40
75893;DHT22;64572;50.950;3.676;2022-12-18T08:52:45;-3.80;90.10
75893;DHT22;64572;50.950;3.676;2022-12-18T08:55:11;-3.70;90.20
75893;DHT22;64572;50.950;3.676;2022-12-18T08:57:37;-3.70;90.20
75893;DHT22;64572;50.950;3.676;2022-12-18T09:00:04;-4.00;90.50
75893;DHT22;64572;50.950;3.676;2022-12-18T09:02:30;-3.90;90.80
75893;DHT22;64572;50.950;3.676;2022-12-18T09:04:55;-3.80;90.80
75893;DHT22;64572;50.950;3.676;2022-12-18T09:07:21;-3.50;90.60
75893;DHT22;64572;50.950;3.676;2022-12-18T09:09:47;-3.50;90.40
75893;DHT22;64572;50.950;3.676;2022-12-18T09:12:12;-3.20;90.50
75893;DHT22;64572;50.950;3.676;2022-12-18T09:14:38;-3.30;90.40
75893;DHT22;64572;50.950;3.676;2022-12-18T09:17:04;-3.20;90.30
75893;DHT22;64572;50.950;3.676;2022-12-18T09:19:30;-3.20;90.40
75893;DHT22;64572;50.950;3.676;2022-12-18T09:21:56;-3.20;90.40
75893;DHT22;64572;50.950;3.676;2022-12-18T09:24:22;-3.10;90.50
75893;DHT22;64572;50.950;3.676;2022-12-18T09:26:47;-3.10;90.40
75893;DHT22;64572;50.950;3.676;2022-12-18T09:29:14;-2.90;90.60
75893;DHT22;64572;50.950;3.676;2022-12-18T09:31:40;-2.80;90.60
75893;DHT22;64572;50.950;3.676;2022-12-18T09:34:06;-2.50;90.70
75893;DHT22;64572;50.950;3.676;2022-12-18T09:36:32;-2.60;90.60
75893;DHT22;64572;50.950;3.676;2022-12-18T09:38:57;-2.50;90.60
75893;DHT22;64572;50.950;3.676;2022-12-18T09:41:56;-2.40;90.70
75893;DHT22;64572;50.950;3.676;2022-12-18T09:44:29;-2.20;90.50
75893;DHT22;64572;50.950;3.676;2022-12-18T09:47:30;-2.00;90.60
75893;DHT22;64572;50.950;3.676;2022-12-18T09:50:01;-1.80;90.30
75893;DHT22;64572;50.950;3.676;2022-12-18T09:52:45;-1.60;90.20
75893;DHT22;64572;50.950;3.676;2022-12-18T09:55:34;-1.50;90.00
75893;DHT22;64572;50.950;3.676;2022-12-18T10:00:38;-1.10;88.20
75893;DHT22;64572;50.950;3.676;2022-12-18T10:03:12;-1.20;88.70
75893;DHT22;64572;50.950;3.676;2022-12-18T10:06:02;-1.10;88.00
75893;DHT22;64572;50.950;3.676;2022-12-18T10:08:57;-1.00;87.70
75893;DHT22;64572;50.950;3.676;2022-12-18T10:14:14;-0.90;86.50
75893;DHT22;64572;50.950;3.676;2022-12-18T10:28:13;-0.80;85.20
75893;DHT22;64572;50.950;3.676;2022-12-18T10:30:41;-0.90;85.60
75893;DHT22;64572;50.950;3.676;2022-12-18T10:33:19;-0.90;85.80
75893;DHT22;64572;50.950;3.676;2022-12-18T10:35:45;-0.70;84.30
75893;DHT22;64572;50.950;3.676;2022-12-18T10:43:32;-0.60;82.10
75893;DHT22;64572;50.950;3.676;2022-12-18T10:46:02;-0.70;84.40
75893;DHT22;64572;50.950;3.676;2022-12-18T10:48:30;-0.80;84.00
75893;DHT22;64572;50.950;3.676;2022-12-18T10:50:56;-0.60;82.60
75893;DHT22;64572;50.950;3.676;2022-12-18T10:53:28;-0.60;83.30
75893;DHT22;64572;50.950;3.676;2022-12-18T10:55:57;-0.60;82.50
75893;DHT22;64572;50.950;3.676;2022-12-18T11:06:13;-0.40;82.40
75893;DHT22;64572;50.950;3.676;2022-12-18T11:08:41;-0.30;82.50
75893;DHT22;64572;50.950;3.676;2022-12-18T11:11:25;-0.40;83.30
75893;DHT22;64572;50.950;3.676;2022-12-18T11:14:07;-0.30;82.40
75893;DHT22;64572;50.950;3.676;2022-12-18T11:16:44;-0.30;82.80
75893;DHT22;64572;50.950;3.676;2022-12-18T11:19:36;-0.40;82.10
75893;DHT22;64572;50.950;3.676;2022-12-18T11:22:30;-0.40;82.90
75893;DHT22;64572;50.950;3.676;2022-12-18T11:25:19;-0.40;83.20
75893;DHT22;64572;50.950;3.676;2022-12-18T11:27:51;-0.20;83.00
75893;DHT22;64572;50.950;3.676;2022-12-18T11:35:32;0.10;82.00
75893;DHT22;64572;50.950;3.676;2022-12-18T11:38:04;0.00;81.60
75893;DHT22;64572;50.950;3.676;2022-12-18T11:40:36;0.00;82.00
75893;DHT22;64572;50.950;3.676;2022-12-18T11:45:41;0.30;79.30
75893;DHT22;64572;50.950;3.676;2022-12-18T11:48:25;0.30;80.20
75893;DHT22;64572;50.950;3.676;2022-12-18T11:50:54;0.30;83.40
75893;DHT22;64572;50.950;3.676;2022-12-18T11:53:21;0.50;81.40
75893;DHT22;64572;50.950;3.676;2022-12-18T11:56:02;0.50;78.70
75893;DHT22;64572;50.950;3.676;2022-12-18T11:58:50;0.40;79.50
75893;DHT22;64572;50.950;3.676;2022-12-18T12:01:50;0.70;79.70
75893;DHT22;64572;50.950;3.676;2022-12-18T12:10:09;0.70;78.90
75893;DHT22;64572;50.950;3.676;2022-12-18T12:21:43;0.90;77.20
75893;DHT22;64572;50.950;3.676;2022-12-18T12:30:32;0.90;79.40
75893;DHT22;64572;50.950;3.676;2022-12-18T12:35:43;1.10;77.60
75893;DHT22;64572;50.950;3.676;2022-12-18T12:40:43;1.30;76.70
75893;DHT22;64572;50.950;3.676;2022-12-18T12:45:55;1.20;78.00
75893;DHT22;64572;50.950;3.676;2022-12-18T12:50:53;0.90;79.70
75893;DHT22;64572;50.950;3.676;2022-12-18T12:53:28;1.00;80.50
75893;DHT22;64572;50.950;3.676;2022-12-18T12:55:56;0.90;81.10
75893;DHT22;64572;50.950;3.676;2022-12-18T12:58:28;1.10;79.50
75893;DHT22;64572;50.950;3.676;2022-12-18T13:01:14;1.40;79.40
75893;DHT22;64572;50.950;3.676;2022-12-18T13:09:05;1.00;78.50
75893;DHT22;64572;50.950;3.676;2022-12-18T13:11:36;0.60;80.40
75893;DHT22;64572;50.950;3.676;2022-12-18T13:14:36;0.70;79.80
75893;DHT22;64572;50.950;3.676;2022-12-18T13:17:28;0.80;80.30
75893;DHT22;64572;50.950;3.676;2022-12-18T13:20:12;0.90;79.30
75893;DHT22;64572;50.950;3.676;2022-12-18T13:22:43;0.70;80.80
75893;DHT22;64572;50.950;3.676;2022-12-18T13:25:35;0.70;80.40
75893;DHT22;64572;50.950;3.676;2022-12-18T13:30:57;0.70;80.10
75893;DHT22;64572;50.950;3.676;2022-12-18T13:38:40;0.80;81.20
75893;DHT22;64572;50.950;3.676;2022-12-18T13:41:22;0.90;79.80
75893;DHT22;64572;50.950;3.676;2022-12-18T13:46:55;0.70;81.20
75893;DHT22;64572;50.950;3.676;2022-12-18T13:49:39;0.80;80.70
75893;DHT22;64572;50.950;3.676;2022-12-18T13:52:33;0.50;80.40
75893;DHT22;64572;50.950;3.676;2022-12-18T13:55:02;0.50;81.50
75893;DHT22;64572;50.950;3.676;2022-12-18T13:57:37;0.80;80.60
75893;DHT22;64572;50.950;3.676;2022-12-18T14:02:50;1.00;80.60
75893;DHT22;64572;50.950;3.676;2022-12-18T14:05:32;1.00;78.50
75893;DHT22;64572;50.950;3.676;2022-12-18T14:08:03;1.00;78.80
75893;DHT22;64572;50.950;3.676;2022-12-18T14:10:30;1.00;79.60
75893;DHT22;64572;50.950;3.676;2022-12-18T14:12:57;1.10;79.40
75893;DHT22;64572;50.950;3.676;2022-12-18T14:15:28;1.00;80.20
75893;DHT22;64572;50.950;3.676;2022-12-18T14:18:21;0.90;81.00
75893;DHT22;64572;50.950;3.676;2022-12-18T14:20:50;1.00;80.70
75893;DHT22;64572;50.950;3.676;2022-12-18T14:26:26;1.10;80.60
75893;DHT22;64572;50.950;3.676;2022-12-18T14:28:55;1.10;80.90
75893;DHT22;64572;50.950;3.676;2022-12-18T14:31:26;1.00;80.70
75893;DHT22;64572;50.950;3.676;2022-12-18T14:33:52;1.00;80.70
75893;DHT22;64572;50.950;3.676;2022-12-18T14:36:20;1.20;79.10
75893;DHT22;64572;50.950;3.676;2022-12-18T14:38:55;1.20;80.60
75893;DHT22;64572;50.950;3.676;2022-12-18T14:41:21;1.20;79.70
75893;DHT22;64572;50.950;3.676;2022-12-18T14:43:49;1.40;78.80
75893;DHT22;64572;50.950;3.676;2022-12-18T14:46:34;1.20;78.70
75893;DHT22;64572;50.950;3.676;2022-12-18T14:51:53;0.70;81.30
75893;DHT22;64572;50.950;3.676;2022-12-18T14:54:20;0.80;81.20
75893;DHT22;64572;50.950;3.676;2022-12-18T14:56:50;1.10;80.60
75893;DHT22;64572;50.950;3.676;2022-12-18T14:59:20;0.90;80.10
75893;DHT22;64572;50.950;3.676;2022-12-18T15:02:08;0.80;81.20
75893;DHT22;64572;50.950;3.676;2022-12-18T15:04:38;0.80;81.70
75893;DHT22;64572;50.950;3.676;2022-12-18T15:09:36;1.00;81.00
75893;DHT22;64572;50.950;3.676;2022-12-18T15:12:02;0.80;81.40
75893;DHT22;64572;50.950;3.676;2022-12-18T15:14:38;0.90;81.70
75893;DHT22;64572;50.950;3.676;2022-12-18T15:17:14;1.10;80.20
75893;DHT22;64572;50.950;3.676;2022-12-18T15:19:42;1.10;80.90
75893;DHT22;64572;50.950;3.676;2022-12-18T15:22:20;1.10;79.70
75893;DHT22;64572;50.950;3.676;2022-12-18T15:24:46;1.10;79.70
75893;DHT22;64572;50.950;3.676;2022-12-18T15:27:38;1.00;81.70
75893;DHT22;64572;50.950;3.676;2022-12-18T15:32:42;0.90;80.90
75893;DHT22;64572;50.950;3.676;2022-12-18T15:37:37;1.00;80.30
75893;DHT22;64572;50.950;3.676;2022-12-18T15:40:04;1.10;79.90
75893;DHT22;64572;50.950;3.676;2022-12-18T15:42:30;0.90;80.00
75893;DHT22;64572;50.950;3.676;2022-12-18T15:45:14;0.90;80.40
75893;DHT22;64572;50.950;3.676;2022-12-18T15:47:41;0.80;80.50
75893;DHT22;64572;50.950;3.676;2022-12-18T15:50:08;0.80;81.30
75893;DHT22;64572;50.950;3.676;2022-12-18T15:52:39;0.80;81.30
75893;DHT22;64572;50.950;3.676;2022-12-18T15:55:14;0.80;81.30
75893;DHT22;64572;50.950;3.676;2022-12-18T15:57:58;0.80;81.40
75893;DHT22;64572;50.950;3.676;2022-12-18T16:00:24;0.80;81.30
75893;DHT22;64572;50.950;3.676;2022-12-18T16:02:50;0.80;81.40
75893;DHT22;64572;50.950;3.676;2022-12-18T16:05:17;1.10;80.50
75893;DHT22;64572;50.950;3.676;2022-12-18T16:07:43;1.00;80.30
75893;DHT22;64572;50.950;3.676;2022-12-18T16:10:10;1.00;80.50
75893;DHT22;64572;50.950;3.676;2022-12-18T16:12:36;1.00;80.90
75893;DHT22;64572;50.950;3.676;2022-12-18T16:15:02;1.00;81.40
75893;DHT22;64572;50.950;3.676;2022-12-18T16:17:28;0.90;81.40
75893;DHT22;64572;50.950;3.676;2022-12-18T16:19:54;1.00;81.20
75893;DHT22;64572;50.950;3.676;2022-12-18T16:22:25;1.00;82.20
75893;DHT22;64572;50.950;3.676;2022-12-18T16:24:52;1.00;82.10
75893;DHT22;64572;50.950;3.676;2022-12-18T16:27:18;1.20;81.50
75893;DHT22;64572;50.950;3.676;2022-12-18T16:29:44;1.10;81.50
75893;DHT22;64572;50.950;3.676;2022-12-18T16:32:19;1.20;82.10
75893;DHT22;64572;50.950;3.676;2022-12-18T16:34:45;1.20;81.70
75893;DHT22;64572;50.950;3.676;2022-12-18T16:37:12;1.20;83.80
75893;DHT22;64572;50.950;3.676;2022-12-18T16:39:39;1.10;83.50
75893;DHT22;64572;50.950;3.676;2022-12-18T16:42:13;1.10;83.00
75893;DHT22;64572;50.950;3.676;2022-12-18T16:44:40;1.30;81.00
75893;DHT22;64572;50.950;3.676;2022-12-18T16:47:06;1.20;83.90
75893;DHT22;64572;50.950;3.676;2022-12-18T16:49:31;1.30;82.90
75893;DHT22;64572;50.950;3.676;2022-12-18T16:51:57;1.20;83.20
75893;DHT22;64572;50.950;3.676;2022-12-18T16:54:23;1.10;83.50
75893;DHT22;64572;50.950;3.676;2022-12-18T16:56:50;1.20;84.50
75893;DHT22;64572;50.950;3.676;2022-12-18T16:59:16;1.20;84.80
75893;DHT22;64572;50.950;3.676;2022-12-18T17:01:42;1.20;86.50
75893;DHT22;64572;50.950;3.676;2022-12-18T17:04:08;1.10;86.30
75893;DHT22;64572;50.950;3.676;2022-12-18T17:06:39;1.30;87.10
75893;DHT22;64572;50.950;3.676;2022-12-18T17:09:08;1.60;87.00
75893;DHT22;64572;50.950;3.676;2022-12-18T17:11:34;1.30;87.10
75893;DHT22;64572;50.950;3.676;2022-12-18T17:14:08;1.10;87.30
75893;DHT22;64572;50.950;3.676;2022-12-18T17:16:35;1.10;88.10
75893;DHT22;64572;50.950;3.676;2022-12-18T17:19:01;1.20;87.40
75893;DHT22;64572;50.950;3.676;2022-12-18T17:21:27;1.10;87.30
75893;DHT22;64572;50.950;3.676;2022-12-18T17:23:53;1.00;89.60
75893;DHT22;64572;50.950;3.676;2022-12-18T17:26:18;1.00;90.10
75893;DHT22;64572;50.950;3.676;2022-12-18T17:28:44;1.00;90.10
75893;DHT22;64572;50.950;3.676;2022-12-18T17:31:17;1.00;90.70
75893;DHT22;64572;50.950;3.676;2022-12-18T17:33:43;0.90;91.00
75893;DHT22;64572;50.950;3.676;2022-12-18T17:36:09;0.90;91.20
75893;DHT22;64572;50.950;3.676;2022-12-18T17:38:35;1.10;91.30
75893;DHT22;64572;50.950;3.676;2022-12-18T17:41:03;1.10;91.10
75893;DHT22;64572;50.950;3.676;2022-12-18T17:43:29;1.00;91.30
75893;DHT22;64572;50.950;3.676;2022-12-18T17:45:55;1.00;91.50
75893;DHT22;64572;50.950;3.676;2022-12-18T17:48:20;1.10;91.90
75893;DHT22;64572;50.950;3.676;2022-12-18T17:50:46;1.00;92.20
75893;DHT22;64572;50.950;3.676;2022-12-18T17:53:11;1.10;92.10
75893;DHT22;64572;50.950;3.676;2022-12-18T17:55:37;1.10;92.40
75893;DHT22;64572;50.950;3.676;2022-12-18T17:58:03;1.00;92.80
75893;DHT22;64572;50.950;3.676;2022-12-18T18:00:28;1.10;92.50
75893;DHT22;64572;50.950;3.676;2022-12-18T18:02:54;1.20;92.70